createdAt,value
2019-02-16T00:00:48.118Z,4.59
2019-02-16T00:01:52.222Z,4.53
2019-02-16T00:02:55.652Z,4.45
2019-02-16T00:03:59.111Z,4.43
2019-02-16T00:05:02.607Z,4.37
2019-02-16T00:06:06.123Z,4.39
2019-02-16T00:07:09.565Z,4.44
2019-02-16T00:08:12.977Z,4.34
2019-02-16T00:09:16.426Z,4.19
2019-02-16T00:10:19.870Z,4.25
2019-02-16T00:11:25.718Z,4.21
2019-02-16T00:12:29.156Z,4.24
2019-02-16T00:13:32.595Z,4.26
2019-02-16T00:14:36.044Z,4.29
2019-02-16T00:15:39.470Z,4.27
2019-02-16T00:16:42.900Z,4.22
2019-02-16T00:17:46.340Z,4.23
2019-02-16T00:18:49.765Z,4.21
2019-02-16T00:19:53.213Z,4.23
2019-02-16T00:21:03.709Z,4.30
2019-02-16T00:22:01.844Z,4.25
2019-02-16T00:23:05.273Z,4.24
2019-02-16T00:24:08.742Z,4.18
2019-02-16T00:25:12.282Z,4.25
2019-02-16T00:26:15.791Z,4.18
2019-02-16T00:27:19.226Z,4.10
2019-02-16T00:28:22.721Z,4.08
2019-02-16T00:29:26.153Z,3.99
2019-02-16T00:30:29.754Z,3.93
2019-02-16T00:31:33.180Z,3.90
2019-02-16T00:32:36.704Z,3.96
2019-02-16T00:33:40.125Z,4.08
2019-02-16T00:34:43.545Z,4.20
2019-02-16T00:35:47.061Z,4.25
2019-02-16T00:36:50.511Z,4.25
2019-02-16T00:37:53.938Z,4.22
2019-02-16T00:38:57.383Z,4.24
2019-02-16T00:40:00.889Z,4.24
2019-02-16T00:41:04.428Z,4.32
2019-02-16T00:42:07.877Z,4.30
2019-02-16T00:43:11.314Z,4.24
2019-02-16T00:44:14.745Z,4.29
2019-02-16T00:45:18.183Z,4.38
2019-02-16T00:46:21.643Z,4.46
2019-02-16T00:47:25.087Z,4.47
2019-02-16T00:48:28.553Z,4.42
2019-02-16T00:49:32.118Z,4.31
2019-02-16T00:50:35.556Z,4.26
2019-02-16T00:51:39.004Z,4.30
2019-02-16T00:52:42.426Z,4.27
2019-02-16T00:53:45.866Z,4.26
2019-02-16T00:54:49.308Z,4.06
2019-02-16T00:55:52.835Z,3.92
2019-02-16T00:56:56.328Z,3.73
2019-02-16T00:57:59.785Z,3.74
2019-02-16T00:59:03.219Z,3.79
2019-02-16T01:00:09.749Z,3.80
2019-02-16T01:01:13.175Z,3.78
2019-02-16T01:02:16.630Z,3.83
2019-02-16T01:03:20.153Z,3.80
2019-02-16T01:04:23.586Z,3.85
2019-02-16T01:05:27.016Z,3.96
2019-02-16T01:06:30.446Z,4.02
2019-02-16T01:07:33.892Z,4.00
2019-02-16T01:08:37.345Z,3.95
2019-02-16T01:09:40.781Z,3.91
2019-02-16T01:10:44.582Z,3.82
2019-02-16T01:11:48.018Z,3.83
2019-02-16T01:12:51.477Z,3.82
2019-02-16T01:13:54.974Z,3.86
2019-02-16T01:14:58.412Z,3.85
2019-02-16T01:16:01.832Z,3.77
2019-02-16T01:17:05.339Z,3.74
2019-02-16T01:18:09.309Z,3.73
2019-02-16T01:19:12.879Z,3.73
2019-02-16T01:20:16.314Z,3.76
2019-02-16T01:21:22.861Z,3.71
2019-02-16T01:22:24.914Z,3.65
2019-02-16T01:23:28.372Z,3.67
2019-02-16T01:24:31.837Z,3.72
2019-02-16T01:25:35.273Z,3.72
2019-02-16T01:26:38.697Z,3.60
2019-02-16T01:27:42.134Z,3.55
2019-02-16T01:28:45.582Z,3.54
2019-02-16T01:29:49.024Z,3.55
2019-02-16T01:30:52.537Z,3.60
2019-02-16T01:31:55.977Z,3.67
2019-02-16T01:32:59.410Z,3.69
2019-02-16T01:34:02.879Z,3.74
2019-02-16T01:35:07.380Z,3.80
2019-02-16T01:36:10.881Z,3.87
2019-02-16T01:37:14.324Z,3.91
2019-02-16T01:38:17.830Z,3.92
2019-02-16T01:39:21.291Z,3.81
2019-02-16T01:40:24.740Z,3.75
2019-02-16T01:41:28.160Z,3.77
2019-02-16T01:42:31.589Z,3.76
2019-02-16T01:43:35.013Z,3.77
2019-02-16T01:44:38.498Z,3.84
2019-02-16T01:45:42.149Z,3.80
2019-02-16T01:46:45.572Z,3.78
2019-02-16T01:47:50.448Z,3.77
2019-02-16T01:48:53.809Z,3.79
2019-02-16T01:49:57.248Z,3.77
2019-02-16T01:51:00.676Z,3.76
2019-02-16T01:52:04.170Z,3.77
2019-02-16T01:53:07.609Z,3.79
2019-02-16T01:54:11.046Z,3.75
2019-02-16T01:55:14.499Z,3.72
2019-02-16T01:56:17.952Z,3.76
2019-02-16T01:57:21.378Z,3.78
2019-02-16T01:58:24.820Z,3.78
2019-02-16T01:59:28.257Z,3.70
2019-02-16T02:00:31.771Z,3.74
2019-02-16T02:01:35.213Z,3.74
2019-02-16T02:02:38.650Z,3.63
2019-02-16T02:03:42.084Z,3.59
2019-02-16T02:04:45.581Z,3.61
2019-02-16T02:05:49.099Z,3.60
2019-02-16T02:06:52.547Z,3.58
2019-02-16T02:07:55.978Z,3.55
2019-02-16T02:08:59.674Z,3.49
2019-02-16T02:10:03.108Z,3.47
2019-02-16T02:11:07.302Z,3.45
2019-02-16T02:12:10.866Z,3.57
2019-02-16T02:13:14.350Z,3.63
2019-02-16T02:14:17.777Z,3.62
2019-02-16T02:15:21.287Z,3.53
2019-02-16T02:16:24.736Z,3.56
2019-02-16T02:17:28.167Z,3.53
2019-02-16T02:18:31.603Z,3.41
2019-02-16T02:19:35.121Z,3.38
2019-02-16T02:20:38.617Z,3.41
2019-02-16T02:21:42.073Z,3.48
2019-02-16T02:22:45.524Z,3.48
2019-02-16T02:23:48.965Z,3.46
2019-02-16T02:24:52.406Z,3.43
2019-02-16T02:25:55.841Z,3.45
2019-02-16T02:26:59.294Z,3.44
2019-02-16T02:28:02.827Z,3.44
2019-02-16T02:29:06.257Z,3.39
2019-02-16T02:30:10.831Z,3.35
2019-02-16T02:31:14.363Z,3.30
2019-02-16T02:32:17.871Z,3.20
2019-02-16T02:33:21.304Z,3.09
2019-02-16T02:34:24.726Z,2.97
2019-02-16T02:35:28.149Z,2.85
2019-02-16T02:36:31.577Z,2.84
2019-02-16T02:37:35.029Z,2.80
2019-02-16T02:38:38.475Z,2.82
2019-02-16T02:39:41.975Z,2.88
2019-02-16T02:40:45.406Z,2.86
2019-02-16T02:41:48.841Z,2.82
2019-02-16T02:42:52.299Z,2.92
2019-02-16T02:43:55.825Z,3.00
2019-02-16T02:44:59.266Z,3.06
2019-02-16T02:46:02.762Z,3.12
2019-02-16T02:47:06.263Z,3.15
2019-02-16T02:48:09.783Z,3.17
2019-02-16T02:49:13.244Z,3.11
2019-02-16T02:50:16.681Z,3.12
2019-02-16T02:51:20.162Z,3.12
2019-02-16T02:52:23.602Z,3.06
2019-02-16T02:53:31.154Z,3.02
2019-02-16T02:54:32.214Z,3.06
2019-02-16T02:55:35.654Z,3.06
2019-02-16T02:56:39.087Z,2.97
2019-02-16T02:57:42.534Z,2.98
2019-02-16T02:58:45.997Z,3.02
2019-02-16T02:59:49.508Z,2.97
2019-02-16T03:00:53.013Z,2.95
2019-02-16T03:01:56.446Z,2.95
2019-02-16T03:02:59.882Z,2.82
2019-02-16T03:04:03.368Z,2.79
2019-02-16T03:05:08.547Z,2.81
2019-02-16T03:06:11.975Z,2.86
2019-02-16T03:07:15.401Z,2.86
2019-02-16T03:08:18.841Z,2.86
2019-02-16T03:09:22.283Z,2.77
2019-02-16T03:10:25.725Z,2.74
2019-02-16T03:11:29.177Z,2.80
2019-02-16T03:12:32.576Z,2.79
2019-02-16T03:13:36.040Z,2.83
2019-02-16T03:14:39.544Z,2.93
2019-02-16T03:15:43.062Z,2.99
2019-02-16T03:16:46.562Z,2.97
2019-02-16T03:17:49.996Z,2.91
2019-02-16T03:18:53.477Z,2.87
2019-02-16T03:19:56.926Z,2.85
2019-02-16T03:21:00.374Z,2.84
2019-02-16T03:22:03.818Z,2.84
2019-02-16T03:23:12.470Z,2.86
2019-02-16T03:24:15.912Z,2.84
2019-02-16T03:25:19.374Z,2.85
2019-02-16T03:26:35.006Z,2.78
2019-02-16T03:27:59.587Z,2.75
2019-02-16T03:29:11.965Z,2.74
2019-02-16T03:30:30.173Z,2.76
2019-02-16T03:31:45.331Z,2.70
2019-02-16T03:33:19.953Z,2.75
2019-02-16T03:34:29.460Z,2.75
2019-02-16T03:35:41.799Z,2.74
2019-02-16T03:36:59.935Z,2.66
2019-02-16T03:38:30.119Z,2.66
2019-02-16T03:39:34.301Z,2.65
2019-02-16T03:40:37.731Z,2.58
2019-02-16T03:41:41.172Z,2.55
2019-02-16T03:42:44.607Z,2.57
2019-02-16T03:43:48.281Z,2.57
2019-02-16T03:44:51.644Z,2.52
2019-02-16T03:45:55.149Z,2.48
2019-02-16T03:46:58.610Z,2.40
2019-02-16T03:48:02.045Z,2.42
2019-02-16T03:49:05.473Z,2.45
2019-02-16T03:50:09.350Z,2.45
2019-02-16T03:51:12.772Z,2.48
2019-02-16T03:52:16.312Z,2.50
2019-02-16T03:53:19.748Z,2.58
2019-02-16T03:54:23.184Z,2.50
2019-02-16T03:55:26.692Z,2.52
2019-02-16T03:56:30.126Z,2.51
2019-02-16T03:57:33.649Z,2.53
2019-02-16T03:58:37.100Z,2.51
2019-02-16T03:59:40.540Z,2.44
2019-02-16T04:00:44.090Z,2.49
2019-02-16T04:01:47.500Z,2.50
2019-02-16T04:02:50.957Z,2.53
2019-02-16T04:03:54.475Z,2.49
2019-02-16T04:04:57.917Z,2.49
2019-02-16T04:06:01.368Z,2.08
2019-02-16T04:07:04.829Z,2.31
2019-02-16T04:08:08.282Z,2.22
2019-02-16T04:09:11.718Z,2.27
2019-02-16T04:10:15.216Z,2.32
2019-02-16T04:11:18.657Z,2.37
2019-02-16T04:12:22.179Z,2.39
2019-02-16T04:13:25.614Z,2.44
2019-02-16T04:14:29.058Z,2.44
2019-02-16T04:15:32.559Z,2.40
2019-02-16T04:16:36.033Z,2.30
2019-02-16T04:17:39.501Z,2.30
2019-02-16T04:18:42.912Z,2.29
2019-02-16T04:19:46.343Z,2.32
2019-02-16T04:20:49.791Z,2.41
2019-02-16T04:21:53.227Z,2.46
2019-02-16T04:22:56.680Z,2.40
2019-02-16T04:24:00.125Z,2.42
2019-02-16T04:25:03.697Z,2.45
2019-02-16T04:26:08.564Z,2.46
2019-02-16T04:27:11.996Z,2.41
2019-02-16T04:28:15.446Z,2.36
2019-02-16T04:29:18.892Z,2.35
2019-02-16T04:30:22.327Z,2.37
2019-02-16T04:31:25.767Z,2.45
2019-02-16T04:32:29.208Z,2.49
2019-02-16T04:33:32.660Z,2.46
2019-02-16T04:34:36.091Z,2.41
2019-02-16T04:35:39.523Z,2.30
2019-02-16T04:36:42.960Z,2.21
2019-02-16T04:37:46.392Z,2.18
2019-02-16T04:38:49.846Z,2.15
2019-02-16T04:39:53.282Z,2.05
2019-02-16T04:40:56.723Z,1.98
2019-02-16T04:42:00.159Z,1.98
2019-02-16T04:43:03.596Z,1.93
2019-02-16T04:44:07.043Z,1.86
2019-02-16T04:45:10.626Z,1.84
2019-02-16T04:46:14.065Z,1.94
2019-02-16T04:47:17.502Z,1.89
2019-02-16T04:48:20.936Z,1.90
2019-02-16T04:49:24.464Z,2.00
2019-02-16T04:50:27.935Z,2.09
2019-02-16T04:51:31.367Z,2.13
2019-02-16T04:52:35.368Z,2.21
2019-02-16T04:53:38.847Z,2.26
2019-02-16T04:54:42.307Z,2.07
2019-02-16T04:55:45.765Z,2.02
2019-02-16T04:56:49.188Z,2.02
2019-02-16T04:57:52.631Z,2.09
2019-02-16T04:58:56.063Z,2.16
2019-02-16T04:59:59.501Z,2.20
2019-02-16T05:01:03.018Z,2.17
2019-02-16T05:02:06.451Z,2.18
2019-02-16T05:03:09.889Z,2.15
2019-02-16T05:04:13.322Z,2.20
2019-02-16T05:05:16.758Z,2.20
2019-02-16T05:06:20.192Z,2.19
2019-02-16T05:07:23.622Z,2.13
2019-02-16T05:08:27.081Z,2.06
2019-02-16T05:09:30.485Z,2.05
2019-02-16T05:10:33.999Z,2.09
2019-02-16T05:11:37.441Z,2.18
2019-02-16T05:12:40.864Z,2.24
2019-02-16T05:13:44.297Z,2.25
2019-02-16T05:14:47.739Z,2.23
2019-02-16T05:15:51.189Z,2.19
2019-02-16T05:16:54.635Z,2.18
2019-02-16T05:17:58.071Z,2.11
2019-02-16T05:19:01.572Z,2.03
2019-02-16T05:20:06.648Z,2.03
2019-02-16T05:21:10.119Z,2.11
2019-02-16T05:22:13.577Z,2.17
2019-02-16T05:23:16.984Z,2.08
2019-02-16T05:24:20.439Z,1.99
2019-02-16T05:25:23.874Z,1.95
2019-02-16T05:26:27.332Z,1.98
2019-02-16T05:27:30.752Z,2.02
2019-02-16T05:28:34.244Z,2.00
2019-02-16T05:29:37.647Z,1.94
2019-02-16T05:30:41.079Z,1.95
2019-02-16T05:31:44.529Z,1.98
2019-02-16T05:32:47.960Z,2.04
2019-02-16T05:33:51.387Z,1.99
2019-02-16T05:34:54.812Z,1.98
2019-02-16T05:35:58.238Z,2.07
2019-02-16T05:37:01.689Z,2.13
2019-02-16T05:38:05.122Z,2.10
2019-02-16T05:39:08.553Z,2.04
2019-02-16T05:40:11.981Z,2.07
2019-02-16T05:41:15.434Z,2.03
2019-02-16T05:42:18.864Z,2.00
2019-02-16T05:43:22.294Z,2.08
2019-02-16T05:44:25.727Z,2.12
2019-02-16T05:45:29.233Z,2.11
2019-02-16T05:46:32.659Z,2.08
2019-02-16T05:47:36.107Z,2.10
2019-02-16T05:48:39.541Z,2.17
2019-02-16T05:49:42.975Z,2.26
2019-02-16T05:50:46.400Z,2.29
2019-02-16T05:51:49.832Z,2.31
2019-02-16T05:52:54.659Z,2.51
2019-02-16T05:53:58.241Z,2.50
2019-02-16T05:55:01.705Z,2.54
2019-02-16T05:56:05.128Z,2.53
2019-02-16T05:57:08.557Z,2.48
2019-02-16T05:58:12.006Z,2.42
2019-02-16T05:59:15.500Z,2.45
2019-02-16T06:00:20.559Z,2.44
2019-02-16T06:01:23.984Z,2.41
2019-02-16T06:02:27.423Z,2.19
2019-02-16T06:03:30.871Z,2.24
2019-02-16T06:04:34.307Z,2.33
2019-02-16T06:05:37.739Z,2.33
2019-02-16T06:06:41.169Z,2.30
2019-02-16T06:07:44.598Z,2.31
2019-02-16T06:08:48.127Z,2.29
2019-02-16T06:09:51.564Z,2.29
2019-02-16T06:10:54.997Z,2.20
2019-02-16T06:11:58.425Z,2.05
2019-02-16T06:13:02.028Z,2.08
2019-02-16T06:14:05.474Z,2.12
2019-02-16T06:15:09.616Z,2.13
2019-02-16T06:16:13.050Z,2.12
2019-02-16T06:17:16.485Z,2.18
2019-02-16T06:18:19.918Z,2.17
2019-02-16T06:19:23.471Z,2.09
2019-02-16T06:20:26.868Z,2.01
2019-02-16T06:21:30.299Z,2.04
2019-02-16T06:22:33.766Z,1.97
2019-02-16T06:23:37.197Z,2.06
2019-02-16T06:24:40.659Z,2.08
2019-02-16T06:25:44.117Z,2.13
2019-02-16T06:26:47.621Z,2.19
2019-02-16T06:27:51.096Z,2.23
2019-02-16T06:28:54.561Z,2.27
2019-02-16T06:29:58.011Z,2.25
2019-02-16T06:31:01.463Z,2.20
2019-02-16T06:32:04.904Z,2.13
2019-02-16T06:33:08.379Z,2.03
2019-02-16T06:34:11.886Z,2.08
2019-02-16T06:35:25.615Z,2.07
2019-02-16T06:36:30.921Z,1.98
2019-02-16T06:37:34.341Z,1.95
2019-02-16T06:38:37.779Z,1.90
2019-02-16T06:39:41.209Z,1.87
2019-02-16T06:40:44.658Z,1.93
2019-02-16T06:41:48.092Z,1.96
2019-02-16T06:42:51.527Z,1.93
2019-02-16T06:43:54.962Z,1.91
2019-02-16T06:44:58.391Z,1.88
2019-02-16T06:46:01.843Z,1.93
2019-02-16T06:47:05.276Z,1.97
2019-02-16T06:48:08.709Z,1.96
2019-02-16T06:49:12.205Z,1.99
2019-02-16T06:50:15.634Z,2.04
2019-02-16T06:51:19.079Z,1.98
2019-02-16T06:52:22.579Z,2.02
2019-02-16T06:53:26.029Z,2.05
2019-02-16T06:54:29.442Z,2.01
2019-02-16T06:55:34.578Z,2.05
2019-02-16T06:56:42.077Z,2.09
2019-02-16T06:57:47.139Z,2.07
2019-02-16T06:58:50.560Z,2.11
2019-02-16T06:59:53.985Z,2.13
2019-02-16T07:00:57.415Z,2.21
2019-02-16T07:02:00.862Z,2.22
2019-02-16T07:03:04.285Z,2.21
2019-02-16T07:04:07.707Z,2.25
2019-02-16T07:05:11.142Z,2.28
2019-02-16T07:06:14.569Z,2.35
2019-02-16T07:07:18.021Z,2.40
2019-02-16T07:08:21.446Z,2.45
2019-02-16T07:09:24.904Z,2.42
2019-02-16T07:10:28.346Z,2.40
2019-02-16T07:11:31.796Z,2.41
2019-02-16T07:12:35.241Z,2.49
2019-02-16T07:13:38.660Z,2.54
2019-02-16T07:14:42.080Z,2.52
2019-02-16T07:15:47.180Z,2.45
2019-02-16T07:16:52.249Z,2.37
2019-02-16T07:17:57.334Z,2.39
2019-02-16T07:19:05.148Z,2.42
2019-02-16T07:20:09.409Z,2.34
2019-02-16T07:21:12.867Z,2.35
2019-02-16T07:22:16.304Z,2.44
2019-02-16T07:23:22.396Z,2.57
2019-02-16T07:24:25.100Z,2.61
2019-02-16T07:25:28.557Z,2.66
2019-02-16T07:26:32.121Z,2.77
2019-02-16T07:27:35.660Z,2.75
2019-02-16T07:28:39.090Z,2.72
2019-02-16T07:29:42.527Z,2.71
2019-02-16T07:30:45.967Z,2.72
2019-02-16T07:31:49.379Z,2.74
2019-02-16T07:32:53.026Z,2.71
2019-02-16T07:33:56.539Z,2.72
2019-02-16T07:34:59.956Z,2.76
2019-02-16T07:36:03.461Z,2.78
2019-02-16T07:37:06.889Z,2.77
2019-02-16T07:38:10.346Z,2.77
2019-02-16T07:39:13.760Z,2.74
2019-02-16T07:40:17.189Z,2.68
2019-02-16T07:41:20.687Z,2.69
2019-02-16T07:42:24.381Z,2.70
2019-02-16T07:43:47.297Z,2.73
2019-02-16T07:44:52.372Z,2.81
2019-02-16T07:45:57.443Z,2.91
2019-02-16T07:47:14.243Z,3.03
2019-02-16T07:48:25.135Z,3.14
2019-02-16T07:49:35.970Z,3.22
2019-02-16T07:50:41.035Z,3.29
2019-02-16T07:51:58.017Z,3.23
2019-02-16T07:53:03.088Z,3.01
2019-02-16T07:54:10.886Z,2.92
2019-02-16T07:55:31.956Z,3.04
2019-02-16T07:56:37.092Z,3.15
2019-02-16T07:57:58.125Z,3.24
2019-02-16T07:59:06.140Z,3.36
2019-02-16T08:00:11.377Z,3.40
2019-02-16T08:01:32.048Z,3.49
2019-02-16T08:02:39.698Z,3.53
2019-02-16T08:03:44.749Z,3.53
2019-02-16T08:04:49.833Z,3.59
2019-02-16T08:06:06.696Z,3.64
2019-02-16T08:07:11.767Z,3.72
2019-02-16T08:08:19.506Z,3.81
2019-02-16T08:09:30.658Z,3.83
2019-02-16T08:10:35.746Z,3.81
2019-02-16T08:11:40.818Z,3.81
2019-02-16T08:12:45.875Z,3.77
2019-02-16T08:13:58.098Z,3.77
2019-02-16T08:15:03.330Z,3.82
2019-02-16T08:16:14.259Z,3.89
2019-02-16T08:17:24.789Z,3.93
2019-02-16T08:18:32.640Z,3.98
2019-02-16T08:19:53.585Z,4.03
2019-02-16T08:20:58.647Z,4.05
2019-02-16T08:22:03.715Z,4.08
2019-02-16T08:23:17.586Z,4.21
2019-02-16T08:24:28.630Z,4.28
2019-02-16T08:25:39.666Z,4.33
2019-02-16T08:26:50.245Z,4.39
2019-02-16T08:27:56.852Z,4.41
2019-02-16T08:29:13.438Z,4.42
2019-02-16T08:30:36.313Z,4.41
2019-02-16T08:31:41.399Z,4.40
2019-02-16T08:33:01.348Z,4.47
2019-02-16T08:34:15.544Z,4.63
2019-02-16T08:35:29.444Z,4.71
2019-02-16T08:36:50.515Z,4.77
2019-02-16T08:38:04.035Z,4.86
2019-02-16T08:39:09.105Z,4.94
2019-02-16T08:40:14.336Z,4.96
2019-02-16T08:41:21.845Z,5.01
2019-02-16T08:42:26.912Z,5.06
2019-02-16T08:43:34.737Z,5.06
2019-02-16T08:44:39.829Z,5.16
2019-02-16T08:45:47.628Z,5.24
2019-02-16T08:46:52.763Z,5.26
2019-02-16T08:48:12.631Z,5.30
2019-02-16T08:49:23.315Z,5.26
2019-02-16T08:50:40.368Z,5.32
2019-02-16T08:51:45.437Z,5.40
2019-02-16T08:52:53.496Z,5.43
2019-02-16T08:54:01.274Z,5.46
2019-02-16T08:55:23.172Z,5.50
2019-02-16T08:56:44.440Z,5.53
2019-02-16T08:57:52.522Z,5.63
2019-02-16T08:59:00.559Z,5.66
2019-02-16T09:00:22.423Z,5.65
2019-02-16T09:01:43.766Z,5.73
2019-02-16T09:02:48.882Z,5.78
2019-02-16T09:04:08.993Z,5.86
2019-02-16T09:05:22.768Z,5.94
2019-02-16T09:06:27.836Z,5.97
2019-02-16T09:07:35.875Z,6.03
2019-02-16T09:08:41.022Z,6.08
2019-02-16T09:09:48.912Z,6.07
2019-02-16T09:11:09.676Z,6.14
2019-02-16T09:12:29.315Z,6.16
2019-02-16T09:13:34.468Z,6.22
2019-02-16T09:14:51.308Z,6.32
2019-02-16T09:15:56.386Z,6.32
2019-02-16T09:17:04.443Z,6.34
2019-02-16T09:18:18.393Z,6.38
2019-02-16T09:19:39.168Z,6.40
2019-02-16T09:20:53.055Z,6.16
2019-02-16T09:22:01.238Z,6.54
2019-02-16T09:23:12.143Z,6.53
2019-02-16T09:24:35.057Z,6.61
2019-02-16T09:25:42.537Z,6.65
2019-02-16T09:27:05.503Z,6.72
2019-02-16T09:28:25.196Z,6.77
2019-02-16T09:29:35.702Z,6.87
2019-02-16T09:30:56.846Z,6.96
2019-02-16T09:32:04.828Z,7.03
2019-02-16T09:33:15.562Z,7.11
2019-02-16T09:34:36.641Z,7.16
2019-02-16T09:35:41.703Z,7.25
2019-02-16T09:36:52.736Z,7.27
2019-02-16T09:38:03.722Z,7.32
2019-02-16T09:39:17.646Z,7.40
2019-02-16T09:40:25.421Z,7.47
2019-02-16T09:41:36.370Z,7.49
2019-02-16T09:42:44.125Z,7.54
2019-02-16T09:44:03.763Z,7.61
2019-02-16T09:45:15.571Z,7.66
2019-02-16T09:46:23.382Z,7.77
2019-02-16T09:47:40.470Z,7.81
2019-02-16T09:48:51.569Z,7.85
2019-02-16T09:49:56.651Z,7.89
2019-02-16T09:51:01.707Z,7.96
2019-02-16T09:52:09.687Z,7.97
2019-02-16T09:53:20.502Z,7.98
2019-02-16T09:54:28.292Z,8.01
2019-02-16T09:55:39.079Z,8.05
2019-02-16T09:56:44.311Z,8.09
2019-02-16T09:57:52.180Z,8.13
2019-02-16T09:58:59.774Z,8.16
2019-02-16T10:00:16.672Z,8.20
2019-02-16T10:01:21.716Z,8.26
2019-02-16T10:02:32.679Z,8.33
2019-02-16T10:03:37.866Z,8.39
2019-02-16T10:04:54.890Z,8.46
2019-02-16T10:06:11.941Z,8.53
2019-02-16T10:07:17.013Z,8.62
2019-02-16T10:08:38.141Z,8.74
2019-02-16T10:09:48.797Z,8.82
2019-02-16T10:10:53.912Z,8.94
2019-02-16T10:11:59.013Z,9.01
2019-02-16T10:13:10.062Z,9.12
2019-02-16T10:14:15.205Z,9.20
2019-02-16T10:15:31.978Z,9.28
2019-02-16T10:16:49.002Z,9.32
2019-02-16T10:17:59.959Z,9.36
2019-02-16T10:19:05.073Z,9.34
2019-02-16T10:20:13.097Z,9.38
2019-02-16T10:21:27.241Z,9.34
2019-02-16T10:22:44.237Z,9.34
2019-02-16T10:23:49.324Z,9.35
2019-02-16T10:25:06.212Z,9.42
2019-02-16T10:26:27.297Z,9.53
2019-02-16T10:27:32.432Z,9.61
2019-02-16T10:28:37.575Z,9.69
2019-02-16T10:29:45.540Z,9.69
2019-02-16T10:31:00.648Z,9.68
2019-02-16T10:32:11.756Z,9.70
2019-02-16T10:33:22.389Z,9.71
2019-02-16T10:34:27.468Z,9.73
2019-02-16T10:35:44.395Z,9.76
2019-02-16T10:37:07.623Z,9.75
2019-02-16T10:38:12.685Z,9.76
2019-02-16T10:39:17.831Z,9.88
2019-02-16T10:40:37.930Z,9.88
2019-02-16T10:41:45.841Z,9.93
2019-02-16T10:43:02.759Z,10.02
2019-02-16T10:44:19.715Z,10.10
2019-02-16T10:45:42.878Z,10.17
2019-02-16T10:47:02.675Z,10.20
2019-02-16T10:48:07.890Z,10.32
2019-02-16T10:49:18.930Z,10.36
2019-02-16T10:50:24.393Z,10.46
2019-02-16T10:51:41.085Z,10.52
2019-02-16T10:52:51.723Z,10.60
2019-02-16T10:54:08.545Z,10.68
2019-02-16T10:55:19.491Z,10.69
2019-02-16T10:56:24.562Z,10.73
2019-02-16T10:57:29.621Z,10.68
2019-02-16T10:58:49.600Z,10.68
2019-02-16T11:00:10.737Z,10.69
2019-02-16T11:01:15.808Z,10.92
2019-02-16T11:02:20.977Z,11.01
2019-02-16T11:03:31.905Z,11.01
2019-02-16T11:04:42.973Z,11.09
2019-02-16T11:05:53.639Z,11.20
2019-02-16T11:07:10.683Z,11.30
2019-02-16T11:08:21.411Z,11.40
2019-02-16T11:09:35.070Z,11.52
2019-02-16T11:10:40.146Z,11.55
2019-02-16T11:12:01.270Z,11.64
2019-02-16T11:13:15.242Z,11.65
2019-02-16T11:14:29.208Z,11.61
2019-02-16T11:15:34.282Z,11.64
2019-02-16T11:16:42.099Z,11.69
2019-02-16T11:17:59.132Z,11.72
2019-02-16T11:19:16.179Z,11.79
2019-02-16T11:20:23.922Z,11.90
2019-02-16T11:21:34.817Z,12.06
2019-02-16T11:22:39.888Z,12.17
2019-02-16T11:23:45.498Z,12.20
2019-02-16T11:24:56.368Z,12.22
2019-02-16T11:26:10.157Z,12.34
2019-02-16T11:27:26.940Z,12.43
2019-02-16T11:28:44.015Z,12.41
2019-02-16T11:29:51.701Z,12.42
2019-02-16T11:31:11.341Z,12.45
2019-02-16T11:32:34.322Z,12.50
2019-02-16T11:33:42.008Z,12.52
2019-02-16T11:34:49.622Z,12.70
2019-02-16T11:36:00.288Z,12.83
2019-02-16T11:37:08.026Z,12.84
2019-02-16T11:38:13.096Z,12.94
2019-02-16T11:39:21.394Z,13.27
2019-02-16T11:40:26.479Z,13.45
2019-02-16T11:41:34.206Z,13.61
2019-02-16T11:42:48.388Z,13.78
2019-02-16T11:44:08.107Z,13.91
2019-02-16T11:45:13.243Z,14.10
2019-02-16T11:46:24.108Z,14.24
2019-02-16T11:47:31.931Z,14.41
2019-02-16T11:48:37.044Z,14.60
2019-02-16T11:49:44.949Z,14.82
2019-02-16T11:50:55.446Z,15.03
2019-02-16T11:52:16.474Z,14.98
2019-02-16T11:53:33.612Z,15.17
2019-02-16T11:54:45.411Z,15.19
2019-02-16T11:55:51.081Z,15.23
2019-02-16T11:56:58.924Z,15.38
2019-02-16T11:58:03.997Z,15.42
2019-02-16T11:59:27.216Z,15.46
2019-02-16T12:00:32.304Z,15.56
2019-02-16T12:01:43.205Z,15.77
2019-02-16T12:02:48.270Z,15.77
2019-02-16T12:03:59.298Z,15.98
2019-02-16T12:05:04.381Z,16.01
2019-02-16T12:06:09.478Z,16.25
2019-02-16T12:07:29.396Z,16.36
2019-02-16T12:08:43.264Z,16.29
2019-02-16T12:09:48.356Z,16.57
2019-02-16T12:11:08.354Z,16.67
2019-02-16T12:12:13.453Z,16.51
2019-02-16T12:13:33.654Z,16.64
2019-02-16T12:14:38.728Z,16.68
2019-02-16T12:15:43.832Z,16.82
2019-02-16T12:16:48.922Z,16.92
2019-02-16T12:18:09.702Z,17.10
2019-02-16T12:19:20.749Z,17.16
2019-02-16T12:20:33.354Z,17.38
2019-02-16T12:21:32.658Z,17.58
2019-02-16T12:22:43.195Z,17.74
2019-02-16T12:23:48.255Z,17.65
2019-02-16T12:25:05.115Z,17.58
2019-02-16T12:26:02.752Z,17.55
2019-02-16T12:27:13.847Z,17.40
2019-02-16T12:28:27.572Z,17.48
2019-02-16T12:29:35.153Z,17.62
2019-02-16T12:30:51.698Z,17.80
2019-02-16T12:32:11.721Z,18.02
2019-02-16T12:33:19.534Z,18.35
2019-02-16T12:34:30.709Z,18.68
2019-02-16T12:35:44.539Z,18.82
2019-02-16T12:36:53.146Z,18.98
2019-02-16T12:37:58.294Z,19.41
2019-02-16T12:39:15.108Z,20.45
2019-02-16T12:40:22.896Z,21.69
2019-02-16T12:41:36.720Z,23.39
2019-02-16T12:42:56.447Z,24.58
2019-02-16T12:44:10.517Z,25.35
2019-02-16T12:45:21.622Z,26.28
2019-02-16T12:46:26.925Z,26.71
2019-02-16T12:47:34.589Z,25.63
2019-02-16T12:48:42.320Z,25.01
2019-02-16T12:49:59.480Z,25.27
2019-02-16T12:51:04.528Z,24.93
2019-02-16T12:52:09.718Z,24.35
2019-02-16T12:53:17.602Z,24.29
2019-02-16T12:54:22.721Z,23.85
2019-02-16T12:55:43.562Z,22.52
2019-02-16T12:56:48.950Z,21.47
2019-02-16T12:57:54.047Z,20.87
2019-02-16T12:59:04.949Z,20.77
2019-02-16T13:00:12.316Z,20.80
2019-02-16T13:01:23.314Z,20.89
2019-02-16T13:02:34.208Z,20.80
2019-02-16T13:03:42.220Z,21.14
2019-02-16T13:04:47.298Z,21.56
2019-02-16T13:06:08.302Z,22.05
2019-02-16T13:07:25.346Z,22.80
2019-02-16T13:08:33.281Z,23.49
2019-02-16T13:09:44.347Z,24.41
2019-02-16T13:10:49.504Z,24.97
2019-02-16T13:11:54.567Z,25.33
2019-02-16T13:13:11.274Z,25.19
2019-02-16T13:14:16.374Z,24.96
2019-02-16T13:15:21.528Z,25.48
2019-02-16T13:16:29.068Z,25.95
2019-02-16T13:17:49.125Z,26.03
2019-02-16T13:19:09.215Z,25.58
2019-02-16T13:20:17.122Z,24.91
2019-02-16T13:21:22.204Z,24.62
2019-02-16T13:22:27.337Z,24.54
2019-02-16T13:23:32.413Z,24.02
2019-02-16T13:24:37.503Z,23.60
2019-02-16T13:25:42.577Z,23.32
2019-02-16T13:26:47.659Z,24.02
2019-02-16T13:28:08.745Z,24.68
2019-02-16T13:29:25.415Z,24.17
2019-02-16T13:30:30.523Z,24.50
2019-02-16T13:31:35.641Z,24.88
2019-02-16T13:32:40.833Z,24.02
2019-02-16T13:33:45.892Z,23.58
2019-02-16T13:34:51.077Z,23.49
2019-02-16T13:36:05.129Z,23.69
2019-02-16T13:37:10.235Z,22.98
2019-02-16T13:38:15.279Z,22.42
2019-02-16T13:39:29.113Z,22.04
2019-02-16T13:40:34.205Z,22.20
2019-02-16T13:41:39.348Z,22.38
2019-02-16T13:42:56.094Z,22.72
2019-02-16T13:44:16.070Z,22.75
2019-02-16T13:45:26.934Z,22.43
2019-02-16T13:46:47.010Z,21.96
2019-02-16T13:47:54.877Z,21.90
2019-02-16T13:49:00.016Z,21.75
2019-02-16T13:50:05.467Z,21.50
2019-02-16T13:51:10.579Z,21.52
2019-02-16T13:52:21.322Z,21.74
2019-02-16T13:53:32.094Z,21.84
2019-02-16T13:54:43.286Z,22.04
2019-02-16T13:55:48.465Z,21.93
2019-02-16T13:57:02.371Z,21.78
2019-02-16T13:58:16.229Z,22.02
2019-02-16T13:59:21.313Z,22.29
2019-02-16T14:00:29.051Z,22.34
2019-02-16T14:01:43.134Z,22.46
2019-02-16T14:02:56.753Z,22.77
2019-02-16T14:04:07.443Z,23.03
2019-02-16T14:05:12.599Z,23.02
2019-02-16T14:06:32.500Z,22.83
2019-02-16T14:07:43.253Z,22.84
2019-02-16T14:08:51.437Z,22.97
2019-02-16T14:10:01.955Z,23.07
2019-02-16T14:11:22.040Z,22.98
2019-02-16T14:12:35.587Z,22.93
2019-02-16T14:13:46.518Z,22.89
2019-02-16T14:14:51.591Z,22.81
2019-02-16T14:15:56.664Z,22.74
2019-02-16T14:17:01.753Z,22.61
2019-02-16T14:18:05.200Z,22.70
2019-02-16T14:19:08.644Z,22.69
2019-02-16T14:20:12.096Z,22.91
2019-02-16T14:21:15.520Z,22.97
2019-02-16T14:22:18.989Z,23.05
2019-02-16T14:23:22.431Z,23.15
2019-02-16T14:24:38.919Z,23.31
2019-02-16T14:25:45.750Z,23.26
2019-02-16T14:26:49.356Z,22.53
2019-02-16T14:27:54.094Z,22.38
2019-02-16T14:28:57.513Z,22.27
2019-02-16T14:30:01.013Z,21.97
2019-02-16T14:31:04.525Z,21.86
2019-02-16T14:32:08.050Z,21.76
2019-02-16T14:33:11.567Z,21.76
2019-02-16T14:34:15.058Z,21.61
2019-02-16T14:35:18.496Z,21.34
2019-02-16T14:36:22.035Z,21.26
2019-02-16T14:37:29.772Z,21.21
2019-02-16T14:38:37.561Z,20.94
2019-02-16T14:39:41.085Z,20.64
2019-02-16T14:40:44.734Z,20.48
2019-02-16T14:41:48.171Z,20.37
2019-02-16T14:42:51.611Z,20.26